sensor_id;sensor_type;location;lat;lon;timestamp;P1;durP1;ratioP1;P2;durP2;ratioP2
67456;SDS011;54319;52.038;4.640;2023-07-31T00:01:24;31.40;;;6.38;;
67456;SDS011;54319;52.038;4.640;2023-07-31T00:03:51;27.00;;;5.78;;
67456;SDS011;54319;52.038;4.640;2023-07-31T00:06:18;27.30;;;5.82;;
67456;SDS011;54319;52.038;4.640;2023-07-31T00:08:44;25.02;;;6.38;;
67456;SDS011;54319;52.038;4.640;2023-07-31T00:11:11;28.98;;;5.85;;
67456;SDS011;54319;52.038;4.640;2023-07-31T00:13:39;24.15;;;5.38;;
67456;SDS011;54319;52.038;4.640;2023-07-31T00:16:05;25.38;;;5.72;;
67456;SDS011;54319;52.038;4.640;2023-07-31T00:18:32;19.52;;;5.93;;
67456;SDS011;54319;52.038;4.640;2023-07-31T00:20:59;23.90;;;5.57;;
67456;SDS011;54319;52.038;4.640;2023-07-31T00:23:25;24.50;;;5.97;;
67456;SDS011;54319;52.038;4.640;2023-07-31T00:25:52;30.53;;;6.53;;
67456;SDS011;54319;52.038;4.640;2023-07-31T00:28:18;21.53;;;6.47;;
67456;SDS011;54319;52.038;4.640;2023-07-31T00:30:46;25.10;;;5.70;;
67456;SDS011;54319;52.038;4.640;2023-07-31T00:33:13;28.55;;;6.47;;
67456;SDS011;54319;52.038;4.640;2023-07-31T00:35:39;20.40;;;5.55;;
67456;SDS011;54319;52.038;4.640;2023-07-31T00:38:06;24.92;;;5.50;;
67456;SDS011;54319;52.038;4.640;2023-07-31T00:40:34;20.77;;;6.10;;
67456;SDS011;54319;52.038;4.640;2023-07-31T00:45:47;26.50;;;5.88;;
67456;SDS011;54319;52.038;4.640;2023-07-31T00:48:14;25.52;;;6.70;;
67456;SDS011;54319;52.038;4.640;2023-07-31T00:50:40;30.10;;;5.70;;
67456;SDS011;54319;52.038;4.640;2023-07-31T00:53:07;29.35;;;5.85;;
67456;SDS011;54319;52.038;4.640;2023-07-31T00:55:34;25.58;;;6.50;;
67456;SDS011;54319;52.038;4.640;2023-07-31T00:58:01;27.92;;;6.22;;
67456;SDS011;54319;52.038;4.640;2023-07-31T01:00:28;30.98;;;6.20;;
67456;SDS011;54319;52.038;4.640;2023-07-31T01:02:56;22.50;;;6.10;;
67456;SDS011;54319;52.038;4.640;2023-07-31T01:05:24;25.80;;;6.65;;
67456;SDS011;54319;52.038;4.640;2023-07-31T01:07:56;31.23;;;6.20;;
67456;SDS011;54319;52.038;4.640;2023-07-31T01:10:35;24.40;;;6.57;;
67456;SDS011;54319;52.038;4.640;2023-07-31T01:13:15;28.77;;;6.22;;
67456;SDS011;54319;52.038;4.640;2023-07-31T01:15:43;20.85;;;5.32;;
67456;SDS011;54319;52.038;4.640;2023-07-31T01:18:16;16.42;;;4.88;;
67456;SDS011;54319;52.038;4.640;2023-07-31T01:20:43;15.45;;;5.00;;
67456;SDS011;54319;52.038;4.640;2023-07-31T01:23:23;17.67;;;5.15;;
67456;SDS011;54319;52.038;4.640;2023-07-31T01:26:15;18.67;;;5.00;;
67456;SDS011;54319;52.038;4.640;2023-07-31T01:28:50;19.63;;;4.32;;
67456;SDS011;54319;52.038;4.640;2023-07-31T01:31:23;14.70;;;5.05;;
67456;SDS011;54319;52.038;4.640;2023-07-31T01:33:50;22.05;;;5.25;;
67456;SDS011;54319;52.038;4.640;2023-07-31T01:36:20;16.98;;;4.97;;
67456;SDS011;54319;52.038;4.640;2023-07-31T01:41:21;27.13;;;5.57;;
67456;SDS011;54319;52.038;4.640;2023-07-31T01:43:52;26.30;;;5.47;;
67456;SDS011;54319;52.038;4.640;2023-07-31T01:46:18;22.67;;;5.85;;
67456;SDS011;54319;52.038;4.640;2023-07-31T01:48:45;22.55;;;5.93;;
67456;SDS011;54319;52.038;4.640;2023-07-31T01:51:12;23.42;;;6.47;;
67456;SDS011;54319;52.038;4.640;2023-07-31T01:53:38;23.27;;;5.75;;
67456;SDS011;54319;52.038;4.640;2023-07-31T01:56:05;25.13;;;6.03;;
67456;SDS011;54319;52.038;4.640;2023-07-31T01:58:33;23.02;;;5.95;;
67456;SDS011;54319;52.038;4.640;2023-07-31T02:00:59;21.58;;;5.63;;
67456;SDS011;54319;52.038;4.640;2023-07-31T02:03:26;30.30;;;5.50;;
67456;SDS011;54319;52.038;4.640;2023-07-31T02:05:54;24.00;;;5.70;;
67456;SDS011;54319;52.038;4.640;2023-07-31T02:08:22;26.45;;;6.13;;
67456;SDS011;54319;52.038;4.640;2023-07-31T02:10:50;29.17;;;5.53;;
67456;SDS011;54319;52.038;4.640;2023-07-31T02:13:17;23.83;;;5.82;;
67456;SDS011;54319;52.038;4.640;2023-07-31T02:15:46;22.02;;;5.47;;
67456;SDS011;54319;52.038;4.640;2023-07-31T02:18:14;24.15;;;5.63;;
67456;SDS011;54319;52.038;4.640;2023-07-31T02:20:40;31.67;;;6.57;;
67456;SDS011;54319;52.038;4.640;2023-07-31T02:23:07;27.55;;;6.28;;
67456;SDS011;54319;52.038;4.640;2023-07-31T02:25:34;22.27;;;6.00;;
67456;SDS011;54319;52.038;4.640;2023-07-31T02:28:01;25.38;;;6.00;;
67456;SDS011;54319;52.038;4.640;2023-07-31T02:30:27;23.65;;;5.53;;
67456;SDS011;54319;52.038;4.640;2023-07-31T02:32:55;19.57;;;5.27;;
67456;SDS011;54319;52.038;4.640;2023-07-31T02:35:22;30.40;;;6.47;;
67456;SDS011;54319;52.038;4.640;2023-07-31T02:37:48;19.60;;;5.35;;
67456;SDS011;54319;52.038;4.640;2023-07-31T02:40:19;23.65;;;5.53;;
67456;SDS011;54319;52.038;4.640;2023-07-31T02:42:59;23.33;;;4.95;;
67456;SDS011;54319;52.038;4.640;2023-07-31T02:45:26;24.95;;;5.75;;
67456;SDS011;54319;52.038;4.640;2023-07-31T02:47:52;23.50;;;5.72;;
67456;SDS011;54319;52.038;4.640;2023-07-31T02:50:20;18.38;;;5.07;;
67456;SDS011;54319;52.038;4.640;2023-07-31T02:52:47;18.20;;;5.35;;
67456;SDS011;54319;52.038;4.640;2023-07-31T02:55:14;22.83;;;5.18;;
67456;SDS011;54319;52.038;4.640;2023-07-31T02:57:41;20.02;;;5.32;;
67456;SDS011;54319;52.038;4.640;2023-07-31T03:00:08;21.05;;;4.82;;
67456;SDS011;54319;52.038;4.640;2023-07-31T03:02:35;13.70;;;4.72;;
67456;SDS011;54319;52.038;4.640;2023-07-31T03:05:02;20.20;;;5.22;;
67456;SDS011;54319;52.038;4.640;2023-07-31T03:07:30;16.63;;;4.80;;
67456;SDS011;54319;52.038;4.640;2023-07-31T03:09:56;20.02;;;4.78;;
67456;SDS011;54319;52.038;4.640;2023-07-31T03:12:23;23.63;;;5.22;;
67456;SDS011;54319;52.038;4.640;2023-07-31T03:14:50;19.85;;;4.97;;
67456;SDS011;54319;52.038;4.640;2023-07-31T03:17:16;24.50;;;5.25;;
67456;SDS011;54319;52.038;4.640;2023-07-31T03:19:43;19.27;;;5.20;;
67456;SDS011;54319;52.038;4.640;2023-07-31T03:22:09;22.45;;;4.93;;
67456;SDS011;54319;52.038;4.640;2023-07-31T03:24:37;20.70;;;5.80;;
67456;SDS011;54319;52.038;4.640;2023-07-31T03:27:04;16.38;;;5.10;;
67456;SDS011;54319;52.038;4.640;2023-07-31T03:29:35;18.30;;;5.05;;
67456;SDS011;54319;52.038;4.640;2023-07-31T03:32:02;17.58;;;4.55;;
67456;SDS011;54319;52.038;4.640;2023-07-31T03:34:30;16.25;;;4.93;;
67456;SDS011;54319;52.038;4.640;2023-07-31T03:36:57;15.68;;;4.60;;
67456;SDS011;54319;52.038;4.640;2023-07-31T03:39:23;23.95;;;5.88;;
67456;SDS011;54319;52.038;4.640;2023-07-31T03:41:52;18.58;;;5.03;;
67456;SDS011;54319;52.038;4.640;2023-07-31T03:44:18;21.33;;;4.85;;
67456;SDS011;54319;52.038;4.640;2023-07-31T03:46:45;12.95;;;4.53;;
67456;SDS011;54319;52.038;4.640;2023-07-31T03:49:12;23.23;;;4.70;;
67456;SDS011;54319;52.038;4.640;2023-07-31T03:51:38;17.05;;;4.80;;
67456;SDS011;54319;52.038;4.640;2023-07-31T03:54:06;15.52;;;4.47;;
67456;SDS011;54319;52.038;4.640;2023-07-31T03:56:33;22.50;;;4.40;;
67456;SDS011;54319;52.038;4.640;2023-07-31T03:59:01;13.98;;;4.38;;
67456;SDS011;54319;52.038;4.640;2023-07-31T04:01:28;16.92;;;4.78;;
67456;SDS011;54319;52.038;4.640;2023-07-31T04:03:54;12.90;;;4.75;;
67456;SDS011;54319;52.038;4.640;2023-07-31T04:06:21;14.30;;;4.95;;
67456;SDS011;54319;52.038;4.640;2023-07-31T04:08:47;13.27;;;5.03;;
67456;SDS011;54319;52.038;4.640;2023-07-31T04:11:14;19.60;;;5.37;;
67456;SDS011;54319;52.038;4.640;2023-07-31T04:13:41;12.05;;;4.68;;
67456;SDS011;54319;52.038;4.640;2023-07-31T04:16:09;14.60;;;5.10;;
67456;SDS011;54319;52.038;4.640;2023-07-31T04:18:35;16.15;;;4.60;;
67456;SDS011;54319;52.038;4.640;2023-07-31T04:21:02;12.75;;;4.65;;
67456;SDS011;54319;52.038;4.640;2023-07-31T04:23:28;18.33;;;4.60;;
67456;SDS011;54319;52.038;4.640;2023-07-31T04:25:57;14.32;;;4.63;;
67456;SDS011;54319;52.038;4.640;2023-07-31T04:28:24;15.90;;;4.35;;
67456;SDS011;54319;52.038;4.640;2023-07-31T04:30:51;13.38;;;4.18;;
67456;SDS011;54319;52.038;4.640;2023-07-31T04:33:19;11.40;;;4.50;;
67456;SDS011;54319;52.038;4.640;2023-07-31T04:35:56;10.48;;;3.70;;
67456;SDS011;54319;52.038;4.640;2023-07-31T04:38:27;7.88;;;3.45;;
67456;SDS011;54319;52.038;4.640;2023-07-31T04:40:54;5.47;;;3.05;;
67456;SDS011;54319;52.038;4.640;2023-07-31T04:43:20;8.82;;;3.42;;
67456;SDS011;54319;52.038;4.640;2023-07-31T04:45:47;9.38;;;3.28;;
67456;SDS011;54319;52.038;4.640;2023-07-31T04:48:15;7.00;;;3.13;;
67456;SDS011;54319;52.038;4.640;2023-07-31T04:50:43;6.38;;;3.00;;
67456;SDS011;54319;52.038;4.640;2023-07-31T04:53:10;6.80;;;2.95;;
67456;SDS011;54319;52.038;4.640;2023-07-31T04:55:37;5.13;;;2.83;;
67456;SDS011;54319;52.038;4.640;2023-07-31T04:58:07;5.07;;;2.78;;
67456;SDS011;54319;52.038;4.640;2023-07-31T05:00:34;10.73;;;3.38;;
67456;SDS011;54319;52.038;4.640;2023-07-31T05:03:00;7.10;;;3.03;;
67456;SDS011;54319;52.038;4.640;2023-07-31T05:05:27;7.63;;;3.13;;
67456;SDS011;54319;52.038;4.640;2023-07-31T05:07:55;7.13;;;3.47;;
67456;SDS011;54319;52.038;4.640;2023-07-31T05:10:22;5.25;;;3.03;;
67456;SDS011;54319;52.038;4.640;2023-07-31T05:12:48;7.00;;;3.22;;
67456;SDS011;54319;52.038;4.640;2023-07-31T05:15:15;8.23;;;3.60;;
67456;SDS011;54319;52.038;4.640;2023-07-31T05:17:42;9.27;;;3.97;;
67456;SDS011;54319;52.038;4.640;2023-07-31T05:20:09;7.17;;;3.80;;
67456;SDS011;54319;52.038;4.640;2023-07-31T05:22:36;7.40;;;3.53;;
67456;SDS011;54319;52.038;4.640;2023-07-31T05:25:05;8.00;;;3.15;;
67456;SDS011;54319;52.038;4.640;2023-07-31T05:27:32;8.25;;;3.33;;
67456;SDS011;54319;52.038;4.640;2023-07-31T05:30:00;11.43;;;3.53;;
67456;SDS011;54319;52.038;4.640;2023-07-31T05:32:27;7.88;;;3.50;;
67456;SDS011;54319;52.038;4.640;2023-07-31T05:34:53;9.23;;;3.33;;
67456;SDS011;54319;52.038;4.640;2023-07-31T05:37:21;6.45;;;2.85;;
67456;SDS011;54319;52.038;4.640;2023-07-31T05:39:48;7.03;;;2.85;;
67456;SDS011;54319;52.038;4.640;2023-07-31T05:42:17;7.80;;;2.83;;
67456;SDS011;54319;52.038;4.640;2023-07-31T05:44:43;7.35;;;3.00;;
67456;SDS011;54319;52.038;4.640;2023-07-31T05:47:10;6.25;;;2.58;;
67456;SDS011;54319;52.038;4.640;2023-07-31T05:49:37;5.15;;;2.53;;
67456;SDS011;54319;52.038;4.640;2023-07-31T05:52:04;8.37;;;2.90;;
67456;SDS011;54319;52.038;4.640;2023-07-31T05:54:31;5.60;;;2.65;;
67456;SDS011;54319;52.038;4.640;2023-07-31T05:56:58;5.18;;;2.42;;
67456;SDS011;54319;52.038;4.640;2023-07-31T05:59:26;5.05;;;2.58;;
67456;SDS011;54319;52.038;4.640;2023-07-31T06:01:53;4.70;;;2.65;;
67456;SDS011;54319;52.038;4.640;2023-07-31T06:04:19;6.53;;;2.40;;
67456;SDS011;54319;52.038;4.640;2023-07-31T06:06:46;6.33;;;2.50;;
67456;SDS011;54319;52.038;4.640;2023-07-31T06:09:12;3.42;;;2.20;;
67456;SDS011;54319;52.038;4.640;2023-07-31T06:11:45;5.47;;;2.33;;
67456;SDS011;54319;52.038;4.640;2023-07-31T06:14:12;4.80;;;2.42;;
67456;SDS011;54319;52.038;4.640;2023-07-31T06:16:41;3.97;;;2.33;;
67456;SDS011;54319;52.038;4.640;2023-07-31T06:19:10;5.30;;;2.53;;
67456;SDS011;54319;52.038;4.640;2023-07-31T06:21:37;4.88;;;2.40;;
67456;SDS011;54319;52.038;4.640;2023-07-31T06:24:03;3.25;;;2.25;;
67456;SDS011;54319;52.038;4.640;2023-07-31T06:26:33;7.05;;;2.50;;
67456;SDS011;54319;52.038;4.640;2023-07-31T06:29:00;6.13;;;2.35;;
67456;SDS011;54319;52.038;4.640;2023-07-31T06:31:26;4.57;;;2.30;;
67456;SDS011;54319;52.038;4.640;2023-07-31T06:34:01;6.30;;;1.95;;
67456;SDS011;54319;52.038;4.640;2023-07-31T06:36:28;2.80;;;1.92;;
67456;SDS011;54319;52.038;4.640;2023-07-31T06:38:55;3.80;;;1.88;;
67456;SDS011;54319;52.038;4.640;2023-07-31T06:41:21;3.55;;;2.08;;
67456;SDS011;54319;52.038;4.640;2023-07-31T06:43:48;4.05;;;1.80;;
67456;SDS011;54319;52.038;4.640;2023-07-31T06:46:15;4.13;;;2.00;;
67456;SDS011;54319;52.038;4.640;2023-07-31T06:48:41;4.80;;;2.17;;
67456;SDS011;54319;52.038;4.640;2023-07-31T06:51:09;2.67;;;1.70;;
67456;SDS011;54319;52.038;4.640;2023-07-31T06:53:36;2.35;;;1.50;;
67456;SDS011;54319;52.038;4.640;2023-07-31T06:56:02;5.40;;;1.70;;
67456;SDS011;54319;52.038;4.640;2023-07-31T06:58:30;4.65;;;1.65;;
67456;SDS011;54319;52.038;4.640;2023-07-31T07:00:56;3.78;;;1.50;;
67456;SDS011;54319;52.038;4.640;2023-07-31T07:03:23;3.80;;;1.70;;
67456;SDS011;54319;52.038;4.640;2023-07-31T07:05:50;3.85;;;1.77;;
67456;SDS011;54319;52.038;4.640;2023-07-31T07:08:18;1.67;;;1.42;;
67456;SDS011;54319;52.038;4.640;2023-07-31T07:10:44;2.20;;;1.45;;
67456;SDS011;54319;52.038;4.640;2023-07-31T07:13:18;3.15;;;1.40;;
67456;SDS011;54319;52.038;4.640;2023-07-31T07:15:47;2.08;;;1.40;;
67456;SDS011;54319;52.038;4.640;2023-07-31T07:18:14;4.25;;;1.33;;
67456;SDS011;54319;52.038;4.640;2023-07-31T07:20:45;3.08;;;1.65;;
67456;SDS011;54319;52.038;4.640;2023-07-31T07:23:12;1.88;;;1.33;;
67456;SDS011;54319;52.038;4.640;2023-07-31T07:25:40;1.50;;;1.35;;
67456;SDS011;54319;52.038;4.640;2023-07-31T07:28:07;1.60;;;1.38;;
67456;SDS011;54319;52.038;4.640;2023-07-31T07:30:34;2.97;;;1.52;;
67456;SDS011;54319;52.038;4.640;2023-07-31T07:33:01;1.65;;;1.30;;
67456;SDS011;54319;52.038;4.640;2023-07-31T07:35:27;1.60;;;1.30;;
67456;SDS011;54319;52.038;4.640;2023-07-31T07:37:54;2.53;;;1.50;;
67456;SDS011;54319;52.038;4.640;2023-07-31T07:40:21;2.83;;;1.70;;
67456;SDS011;54319;52.038;4.640;2023-07-31T07:42:51;1.67;;;1.52;;
67456;SDS011;54319;52.038;4.640;2023-07-31T07:45:18;2.13;;;1.10;;
67456;SDS011;54319;52.038;4.640;2023-07-31T07:47:45;1.38;;;1.27;;
67456;SDS011;54319;52.038;4.640;2023-07-31T07:50:11;2.13;;;1.42;;
67456;SDS011;54319;52.038;4.640;2023-07-31T07:52:41;1.38;;;1.27;;
67456;SDS011;54319;52.038;4.640;2023-07-31T07:55:09;1.52;;;1.23;;
67456;SDS011;54319;52.038;4.640;2023-07-31T07:57:36;3.15;;;1.58;;
67456;SDS011;54319;52.038;4.640;2023-07-31T08:00:05;1.13;;;1.02;;
67456;SDS011;54319;52.038;4.640;2023-07-31T08:02:33;1.60;;;1.23;;
67456;SDS011;54319;52.038;4.640;2023-07-31T08:05:00;1.52;;;1.10;;
67456;SDS011;54319;52.038;4.640;2023-07-31T08:07:30;1.10;;;1.00;;
67456;SDS011;54319;52.038;4.640;2023-07-31T08:10:20;1.48;;;0.73;;
67456;SDS011;54319;52.038;4.640;2023-07-31T08:12:46;1.95;;;1.13;;
67456;SDS011;54319;52.038;4.640;2023-07-31T08:15:14;0.70;;;0.70;;
67456;SDS011;54319;52.038;4.640;2023-07-31T08:17:41;0.77;;;0.70;;
67456;SDS011;54319;52.038;4.640;2023-07-31T08:20:08;0.52;;;0.52;;
67456;SDS011;54319;52.038;4.640;2023-07-31T08:22:36;1.15;;;0.80;;
67456;SDS011;54319;52.038;4.640;2023-07-31T08:25:02;1.50;;;0.80;;
67456;SDS011;54319;52.038;4.640;2023-07-31T08:27:31;2.45;;;0.80;;
67456;SDS011;54319;52.038;4.640;2023-07-31T08:29:57;0.68;;;0.60;;
67456;SDS011;54319;52.038;4.640;2023-07-31T08:32:25;1.35;;;0.90;;
67456;SDS011;54319;52.038;4.640;2023-07-31T08:34:52;1.52;;;0.75;;
67456;SDS011;54319;52.038;4.640;2023-07-31T08:37:18;2.13;;;0.90;;
67456;SDS011;54319;52.038;4.640;2023-07-31T08:39:45;2.33;;;0.70;;
67456;SDS011;54319;52.038;4.640;2023-07-31T08:42:12;1.63;;;1.20;;
67456;SDS011;54319;52.038;4.640;2023-07-31T08:44:40;1.25;;;0.80;;
67456;SDS011;54319;52.038;4.640;2023-07-31T08:47:13;1.08;;;0.75;;
67456;SDS011;54319;52.038;4.640;2023-07-31T08:49:43;0.98;;;0.80;;
67456;SDS011;54319;52.038;4.640;2023-07-31T08:52:12;1.65;;;0.95;;
67456;SDS011;54319;52.038;4.640;2023-07-31T08:54:39;1.48;;;0.80;;
67456;SDS011;54319;52.038;4.640;2023-07-31T08:57:06;1.08;;;0.75;;
67456;SDS011;54319;52.038;4.640;2023-07-31T08:59:34;1.35;;;0.95;;
67456;SDS011;54319;52.038;4.640;2023-07-31T09:02:03;2.53;;;1.10;;
67456;SDS011;54319;52.038;4.640;2023-07-31T09:04:32;5.00;;;1.50;;
67456;SDS011;54319;52.038;4.640;2023-07-31T09:07:03;6.00;;;1.77;;
67456;SDS011;54319;52.038;4.640;2023-07-31T09:09:30;3.80;;;1.70;;
67456;SDS011;54319;52.038;4.640;2023-07-31T09:11:57;3.75;;;1.42;;
67456;SDS011;54319;52.038;4.640;2023-07-31T09:14:24;2.83;;;1.60;;
67456;SDS011;54319;52.038;4.640;2023-07-31T09:16:52;7.90;;;1.75;;
67456;SDS011;54319;52.038;4.640;2023-07-31T09:19:26;5.57;;;1.80;;
67456;SDS011;54319;52.038;4.640;2023-07-31T09:21:54;8.77;;;2.20;;
67456;SDS011;54319;52.038;4.640;2023-07-31T09:24:28;4.07;;;2.13;;
67456;SDS011;54319;52.038;4.640;2023-07-31T09:26:57;4.47;;;1.92;;
67456;SDS011;54319;52.038;4.640;2023-07-31T09:29:25;7.35;;;2.75;;
67456;SDS011;54319;52.038;4.640;2023-07-31T09:31:52;6.90;;;2.88;;
67456;SDS011;54319;52.038;4.640;2023-07-31T09:34:21;4.88;;;2.28;;
67456;SDS011;54319;52.038;4.640;2023-07-31T09:36:57;4.22;;;1.95;;
67456;SDS011;54319;52.038;4.640;2023-07-31T09:39:29;4.32;;;1.90;;
67456;SDS011;54319;52.038;4.640;2023-07-31T09:41:56;2.25;;;1.60;;
67456;SDS011;54319;52.038;4.640;2023-07-31T09:44:25;3.15;;;1.52;;
67456;SDS011;54319;52.038;4.640;2023-07-31T09:47:04;2.67;;;1.60;;
67456;SDS011;54319;52.038;4.640;2023-07-31T09:49:31;4.32;;;1.88;;
67456;SDS011;54319;52.038;4.640;2023-07-31T09:51:58;3.45;;;1.70;;
67456;SDS011;54319;52.038;4.640;2023-07-31T09:54:25;3.38;;;1.88;;
67456;SDS011;54319;52.038;4.640;2023-07-31T09:56:53;6.72;;;1.80;;
67456;SDS011;54319;52.038;4.640;2023-07-31T09:59:20;2.65;;;1.63;;
67456;SDS011;54319;52.038;4.640;2023-07-31T10:01:47;2.97;;;1.60;;
67456;SDS011;54319;52.038;4.640;2023-07-31T10:04:15;3.80;;;1.80;;
67456;SDS011;54319;52.038;4.640;2023-07-31T10:06:45;4.22;;;1.70;;
67456;SDS011;54319;52.038;4.640;2023-07-31T10:09:16;4.00;;;1.80;;
67456;SDS011;54319;52.038;4.640;2023-07-31T10:11:46;3.30;;;1.83;;
67456;SDS011;54319;52.038;4.640;2023-07-31T10:14:19;3.05;;;1.85;;
67456;SDS011;54319;52.038;4.640;2023-07-31T10:16:47;4.25;;;2.03;;
67456;SDS011;54319;52.038;4.640;2023-07-31T10:19:14;4.85;;;1.73;;
67456;SDS011;54319;52.038;4.640;2023-07-31T10:21:41;5.32;;;1.90;;
67456;SDS011;54319;52.038;4.640;2023-07-31T10:24:08;3.60;;;1.85;;
67456;SDS011;54319;52.038;4.640;2023-07-31T10:26:35;4.35;;;1.73;;
67456;SDS011;54319;52.038;4.640;2023-07-31T10:29:05;4.72;;;1.88;;
67456;SDS011;54319;52.038;4.640;2023-07-31T10:31:43;6.20;;;1.90;;
67456;SDS011;54319;52.038;4.640;2023-07-31T10:34:12;7.63;;;2.15;;
67456;SDS011;54319;52.038;4.640;2023-07-31T10:36:39;7.20;;;2.00;;
67456;SDS011;54319;52.038;4.640;2023-07-31T10:39:06;6.22;;;2.30;;
67456;SDS011;54319;52.038;4.640;2023-07-31T10:42:11;8.25;;;3.03;;
67456;SDS011;54319;52.038;4.640;2023-07-31T10:44:43;7.13;;;2.17;;
67456;SDS011;54319;52.038;4.640;2023-07-31T10:47:14;10.27;;;2.20;;
67456;SDS011;54319;52.038;4.640;2023-07-31T10:49:44;9.30;;;2.70;;
67456;SDS011;54319;52.038;4.640;2023-07-31T10:52:12;11.15;;;2.80;;
67456;SDS011;54319;52.038;4.640;2023-07-31T10:54:41;10.57;;;2.55;;
67456;SDS011;54319;52.038;4.640;2023-07-31T10:57:18;6.95;;;2.08;;
67456;SDS011;54319;52.038;4.640;2023-07-31T10:59:46;10.90;;;2.25;;
67456;SDS011;54319;52.038;4.640;2023-07-31T11:02:23;5.47;;;2.30;;
67456;SDS011;54319;52.038;4.640;2023-07-31T11:07:46;5.75;;;2.00;;
67456;SDS011;54319;52.038;4.640;2023-07-31T11:10:17;5.88;;;1.90;;
67456;SDS011;54319;52.038;4.640;2023-07-31T11:12:45;5.50;;;2.03;;
67456;SDS011;54319;52.038;4.640;2023-07-31T11:15:12;6.20;;;1.83;;
67456;SDS011;54319;52.038;4.640;2023-07-31T11:17:38;4.95;;;1.80;;
67456;SDS011;54319;52.038;4.640;2023-07-31T11:20:05;5.63;;;1.95;;
67456;SDS011;54319;52.038;4.640;2023-07-31T11:22:34;7.47;;;2.15;;
67456;SDS011;54319;52.038;4.640;2023-07-31T11:25:01;7.03;;;2.13;;
67456;SDS011;54319;52.038;4.640;2023-07-31T11:27:29;5.00;;;1.65;;
67456;SDS011;54319;52.038;4.640;2023-07-31T11:30:04;5.20;;;2.00;;
67456;SDS011;54319;52.038;4.640;2023-07-31T11:32:37;9.60;;;2.00;;
67456;SDS011;54319;52.038;4.640;2023-07-31T11:35:04;6.15;;;1.92;;
67456;SDS011;54319;52.038;4.640;2023-07-31T11:37:39;8.82;;;2.10;;
67456;SDS011;54319;52.038;4.640;2023-07-31T11:40:07;7.45;;;2.22;;
67456;SDS011;54319;52.038;4.640;2023-07-31T11:42:36;4.65;;;1.70;;
67456;SDS011;54319;52.038;4.640;2023-07-31T11:45:03;10.57;;;2.42;;
67456;SDS011;54319;52.038;4.640;2023-07-31T11:50:02;6.13;;;1.80;;
67456;SDS011;54319;52.038;4.640;2023-07-31T11:52:30;6.90;;;2.20;;
67456;SDS011;54319;52.038;4.640;2023-07-31T11:55:00;6.60;;;2.17;;
67456;SDS011;54319;52.038;4.640;2023-07-31T11:57:28;6.50;;;2.13;;
67456;SDS011;54319;52.038;4.640;2023-07-31T12:02:24;5.63;;;2.20;;
67456;SDS011;54319;52.038;4.640;2023-07-31T12:04:51;8.45;;;2.45;;
67456;SDS011;54319;52.038;4.640;2023-07-31T12:07:17;10.70;;;2.25;;
67456;SDS011;54319;52.038;4.640;2023-07-31T12:09:51;7.65;;;2.33;;
67456;SDS011;54319;52.038;4.640;2023-07-31T12:12:22;4.00;;;1.80;;
67456;SDS011;54319;52.038;4.640;2023-07-31T12:14:50;4.95;;;2.20;;
67456;SDS011;54319;52.038;4.640;2023-07-31T12:17:18;7.15;;;2.20;;
67456;SDS011;54319;52.038;4.640;2023-07-31T12:19:48;4.32;;;1.85;;
67456;SDS011;54319;52.038;4.640;2023-07-31T12:22:21;5.55;;;2.17;;
67456;SDS011;54319;52.038;4.640;2023-07-31T12:24:57;5.00;;;2.20;;
67456;SDS011;54319;52.038;4.640;2023-07-31T12:27:32;4.72;;;2.40;;
67456;SDS011;54319;52.038;4.640;2023-07-31T12:29:59;7.47;;;2.25;;
67456;SDS011;54319;52.038;4.640;2023-07-31T12:32:29;3.70;;;2.10;;
67456;SDS011;54319;52.038;4.640;2023-07-31T12:34:59;5.15;;;1.95;;
67456;SDS011;54319;52.038;4.640;2023-07-31T12:37:27;5.20;;;2.03;;
67456;SDS011;54319;52.038;4.640;2023-07-31T12:39:54;6.60;;;2.10;;
67456;SDS011;54319;52.038;4.640;2023-07-31T12:42:25;6.88;;;2.10;;
67456;SDS011;54319;52.038;4.640;2023-07-31T12:44:52;4.72;;;2.00;;
67456;SDS011;54319;52.038;4.640;2023-07-31T12:47:35;5.75;;;1.90;;
67456;SDS011;54319;52.038;4.640;2023-07-31T12:50:10;5.78;;;2.10;;
67456;SDS011;54319;52.038;4.640;2023-07-31T12:52:36;4.88;;;2.20;;
67456;SDS011;54319;52.038;4.640;2023-07-31T12:55:03;5.55;;;1.92;;
67456;SDS011;54319;52.038;4.640;2023-07-31T12:57:31;3.65;;;2.10;;
67456;SDS011;54319;52.038;4.640;2023-07-31T12:59:58;4.60;;;2.50;;
67456;SDS011;54319;52.038;4.640;2023-07-31T13:02:24;4.43;;;2.17;;
67456;SDS011;54319;52.038;4.640;2023-07-31T13:04:52;3.72;;;1.90;;
67456;SDS011;54319;52.038;4.640;2023-07-31T13:07:20;3.35;;;1.80;;
67456;SDS011;54319;52.038;4.640;2023-07-31T13:09:47;2.45;;;1.70;;
67456;SDS011;54319;52.038;4.640;2023-07-31T13:12:13;5.10;;;1.80;;
67456;SDS011;54319;52.038;4.640;2023-07-31T13:14:40;2.55;;;1.60;;
67456;SDS011;54319;52.038;4.640;2023-07-31T13:17:11;4.05;;;1.50;;
67456;SDS011;54319;52.038;4.640;2023-07-31T13:19:42;2.25;;;1.73;;
67456;SDS011;54319;52.038;4.640;2023-07-31T13:22:08;2.20;;;1.60;;
67456;SDS011;54319;52.038;4.640;2023-07-31T13:24:35;5.30;;;2.10;;
67456;SDS011;54319;52.038;4.640;2023-07-31T13:27:02;3.25;;;1.80;;
67456;SDS011;54319;52.038;4.640;2023-07-31T13:29:29;2.10;;;1.80;;
67456;SDS011;54319;52.038;4.640;2023-07-31T13:31:57;2.80;;;1.70;;
67456;SDS011;54319;52.038;4.640;2023-07-31T13:36:53;4.03;;;2.15;;
67456;SDS011;54319;52.038;4.640;2023-07-31T13:39:20;6.07;;;1.40;;
67456;SDS011;54319;52.038;4.640;2023-07-31T13:41:47;1.48;;;1.15;;
67456;SDS011;54319;52.038;4.640;2023-07-31T13:44:14;1.45;;;1.00;;
67456;SDS011;54319;52.038;4.640;2023-07-31T13:46:41;1.73;;;0.90;;
67456;SDS011;54319;52.038;4.640;2023-07-31T13:49:18;2.28;;;0.75;;
67456;SDS011;54319;52.038;4.640;2023-07-31T13:51:47;1.30;;;0.80;;
67456;SDS011;54319;52.038;4.640;2023-07-31T13:54:16;1.05;;;0.88;;
67456;SDS011;54319;52.038;4.640;2023-07-31T13:56:43;1.70;;;1.15;;
67456;SDS011;54319;52.038;4.640;2023-07-31T13:59:10;1.15;;;1.08;;
67456;SDS011;54319;52.038;4.640;2023-07-31T14:01:37;1.20;;;1.10;;
67456;SDS011;54319;52.038;4.640;2023-07-31T14:04:03;0.90;;;0.90;;
67456;SDS011;54319;52.038;4.640;2023-07-31T14:06:30;0.80;;;0.80;;
67456;SDS011;54319;52.038;4.640;2023-07-31T14:08:57;1.85;;;0.70;;
67456;SDS011;54319;52.038;4.640;2023-07-31T14:11:25;1.10;;;0.65;;
67456;SDS011;54319;52.038;4.640;2023-07-31T14:13:52;0.65;;;0.60;;
67456;SDS011;54319;52.038;4.640;2023-07-31T14:16:27;0.65;;;0.65;;
67456;SDS011;54319;52.038;4.640;2023-07-31T14:21:26;0.88;;;0.70;;
67456;SDS011;54319;52.038;4.640;2023-07-31T14:23:54;0.50;;;0.50;;
67456;SDS011;54319;52.038;4.640;2023-07-31T14:26:20;1.45;;;1.08;;
67456;SDS011;54319;52.038;4.640;2023-07-31T14:28:48;0.77;;;0.77;;
67456;SDS011;54319;52.038;4.640;2023-07-31T14:31:15;3.17;;;1.05;;
67456;SDS011;54319;52.038;4.640;2023-07-31T14:33:41;1.60;;;1.10;;
67456;SDS011;54319;52.038;4.640;2023-07-31T14:36:19;1.27;;;1.05;;
67456;SDS011;54319;52.038;4.640;2023-07-31T14:38:56;1.20;;;1.10;;
67456;SDS011;54319;52.038;4.640;2023-07-31T14:41:22;1.27;;;1.17;;
67456;SDS011;54319;52.038;4.640;2023-07-31T14:43:50;1.20;;;1.10;;
67456;SDS011;54319;52.038;4.640;2023-07-31T14:46:17;1.15;;;1.02;;
67456;SDS011;54319;52.038;4.640;2023-07-31T14:48:43;1.17;;;0.77;;
67456;SDS011;54319;52.038;4.640;2023-07-31T14:51:22;0.80;;;0.80;;
67456;SDS011;54319;52.038;4.640;2023-07-31T14:54:10;0.80;;;0.68;;
67456;SDS011;54319;52.038;4.640;2023-07-31T14:56:37;0.90;;;0.80;;
67456;SDS011;54319;52.038;4.640;2023-07-31T14:59:05;1.60;;;1.10;;
67456;SDS011;54319;52.038;4.640;2023-07-31T15:01:33;0.70;;;0.70;;
67456;SDS011;54319;52.038;4.640;2023-07-31T15:03:59;1.00;;;1.00;;
67456;SDS011;54319;52.038;4.640;2023-07-31T15:06:29;1.30;;;1.20;;
67456;SDS011;54319;52.038;4.640;2023-07-31T15:08:56;1.42;;;0.95;;